sensor_id;sensor_type;location;lat;lon;timestamp;pressure;altitude;pressure_sealevel;temperature;humidity
2192;BME280;1102;49.718;11.902;2022-09-21T00:03:41;97094.94;;;2.89;100.00
2192;BME280;1102;49.718;11.902;2022-09-21T00:06:10;97085.81;;;2.92;100.00
2192;BME280;1102;49.718;11.902;2022-09-21T00:08:37;97059.13;;;2.70;100.00
2192;BME280;1102;49.718;11.902;2022-09-21T00:11:04;97075.34;;;2.92;100.00
2192;BME280;1102;49.718;11.902;2022-09-21T00:13:32;97091.06;;;3.02;100.00
2192;BME280;1102;49.718;11.902;2022-09-21T00:16:00;97075.94;;;3.09;100.00
2192;BME280;1102;49.718;11.902;2022-09-21T00:18:29;97052.41;;;2.94;100.00
2192;BME280;1102;49.718;11.902;2022-09-21T00:20:56;97069.34;;;2.91;100.00
2192;BME280;1102;49.718;11.902;2022-09-21T00:23:23;97048.75;;;2.95;100.00
2192;BME280;1102;49.718;11.902;2022-09-21T00:25:49;97056.56;;;3.00;100.00
2192;BME280;1102;49.718;11.902;2022-09-21T00:28:16;97029.09;;;2.77;100.00
2192;BME280;1102;49.718;11.902;2022-09-21T00:30:42;97083.25;;;3.17;100.00
2192;BME280;1102;49.718;11.902;2022-09-21T00:33:09;97013.97;;;2.74;100.00
2192;BME280;1102;49.718;11.902;2022-09-21T00:35:37;97067.78;;;2.85;100.00
2192;BME280;1102;49.718;11.902;2022-09-21T00:38:03;97094.19;;;2.94;100.00
2192;BME280;1102;49.718;11.902;2022-09-21T00:40:30;97091.28;;;2.90;100.00
2192;BME280;1102;49.718;11.902;2022-09-21T00:43:14;97090.47;;;2.80;100.00
2192;BME280;1102;49.718;11.902;2022-09-21T00:45:43;97097.03;;;2.87;100.00
2192;BME280;1102;49.718;11.902;2022-09-21T00:48:13;97064.84;;;2.56;100.00
2192;BME280;1102;49.718;11.902;2022-09-21T00:50:45;97044.47;;;2.58;100.00
2192;BME280;1102;49.718;11.902;2022-09-21T00:53:12;97054.63;;;2.50;100.00
2192;BME280;1102;49.718;11.902;2022-09-21T00:55:42;97097.53;;;2.79;100.00
2192;BME280;1102;49.718;11.902;2022-09-21T00:58:15;97094.34;;;2.62;100.00
2192;BME280;1102;49.718;11.902;2022-09-21T01:00:45;97089.63;;;2.54;100.00
2192;BME280;1102;49.718;11.902;2022-09-21T01:03:12;97098.97;;;2.50;100.00
2192;BME280;1102;49.718;11.902;2022-09-21T01:05:38;97024.34;;;1.86;100.00
2192;BME280;1102;49.718;11.902;2022-09-21T01:08:06;97072.28;;;2.27;100.00
2192;BME280;1102;49.718;11.902;2022-09-21T01:17:12;97100.03;;;2.49;100.00
2192;BME280;1102;49.718;11.902;2022-09-21T01:28:03;97095.66;;;2.07;100.00
2192;BME280;1102;49.718;11.902;2022-09-21T01:30:33;97052.00;;;1.87;100.00
2192;BME280;1102;49.718;11.902;2022-09-21T01:33:05;97096.03;;;1.84;100.00
2192;BME280;1102;49.718;11.902;2022-09-21T01:35:39;97092.19;;;1.96;100.00
2192;BME280;1102;49.718;11.902;2022-09-21T01:38:18;97049.53;;;1.70;100.00
2192;BME280;1102;49.718;11.902;2022-09-21T01:40:52;97054.09;;;1.90;100.00
2192;BME280;1102;49.718;11.902;2022-09-21T01:43:31;97093.69;;;2.29;100.00
2192;BME280;1102;49.718;11.902;2022-09-21T01:46:00;97042.38;;;1.98;100.00
2192;BME280;1102;49.718;11.902;2022-09-21T01:48:32;97057.50;;;1.96;100.00
2192;BME280;1102;49.718;11.902;2022-09-21T01:51:02;97101.63;;;2.02;100.00
2192;BME280;1102;49.718;11.902;2022-09-21T01:53:38;97102.91;;;2.00;100.00
2192;BME280;1102;49.718;11.902;2022-09-21T01:56:39;97105.75;;;1.98;100.00
2192;BME280;1102;49.718;11.902;2022-09-21T02:01:40;97106.09;;;2.07;100.00
2192;BME280;1102;49.718;11.902;2022-09-21T02:04:10;97064.75;;;1.84;100.00
2192;BME280;1102;49.718;11.902;2022-09-21T02:06:40;97110.06;;;2.15;100.00
2192;BME280;1102;49.718;11.902;2022-09-21T02:09:08;97118.69;;;2.20;100.00
2192;BME280;1102;49.718;11.902;2022-09-21T02:11:36;97104.28;;;2.13;100.00
2192;BME280;1102;49.718;11.902;2022-09-21T02:14:04;97070.03;;;1.94;100.00
2192;BME280;1102;49.718;11.902;2022-09-21T02:16:38;97108.31;;;2.35;100.00
2192;BME280;1102;49.718;11.902;2022-09-21T02:21:53;97098.38;;;2.27;100.00
2192;BME280;1102;49.718;11.902;2022-09-21T02:24:42;97108.38;;;2.51;100.00
2192;BME280;1102;49.718;11.902;2022-09-21T02:32:27;97114.81;;;1.86;100.00
2192;BME280;1102;49.718;11.902;2022-09-21T02:35:05;97116.00;;;2.05;100.00
2192;BME280;1102;49.718;11.902;2022-09-21T02:37:50;97109.19;;;2.04;100.00
2192;BME280;1102;49.718;11.902;2022-09-21T02:40:34;97059.59;;;1.99;100.00
2192;BME280;1102;49.718;11.902;2022-09-21T02:43:13;97108.31;;;2.30;100.00
2192;BME280;1102;49.718;11.902;2022-09-21T02:45:55;97113.72;;;2.24;100.00
2192;BME280;1102;49.718;11.902;2022-09-21T02:48:36;96996.38;;;1.71;100.00
2192;BME280;1102;49.718;11.902;2022-09-21T02:51:09;97100.44;;;2.25;100.00
2192;BME280;1102;49.718;11.902;2022-09-21T02:53:38;97128.84;;;2.22;100.00
2192;BME280;1102;49.718;11.902;2022-09-21T02:56:07;97107.59;;;1.98;100.00
2192;BME280;1102;49.718;11.902;2022-09-21T02:58:41;97084.41;;;2.01;100.00
2192;BME280;1102;49.718;11.902;2022-09-21T03:01:11;97131.94;;;2.14;100.00
2192;BME280;1102;49.718;11.902;2022-09-21T03:03:40;97087.84;;;2.12;100.00
2192;BME280;1102;49.718;11.902;2022-09-21T03:06:06;97102.50;;;2.23;100.00
2192;BME280;1102;49.718;11.902;2022-09-21T03:08:33;97126.13;;;2.49;100.00
2192;BME280;1102;49.718;11.902;2022-09-21T03:11:00;97066.72;;;2.14;100.00
2192;BME280;1102;49.718;11.902;2022-09-21T03:13:26;97067.75;;;2.07;100.00
2192;BME280;1102;49.718;11.902;2022-09-21T03:16:02;97111.19;;;2.34;100.00
2192;BME280;1102;49.718;11.902;2022-09-21T03:18:29;97121.03;;;2.22;100.00
2192;BME280;1102;49.718;11.902;2022-09-21T03:20:56;97113.19;;;2.17;100.00
2192;BME280;1102;49.718;11.902;2022-09-21T03:23:22;97123.50;;;2.44;100.00
2192;BME280;1102;49.718;11.902;2022-09-21T03:25:49;97091.81;;;2.20;100.00
2192;BME280;1102;49.718;11.902;2022-09-21T03:28:18;97092.53;;;2.10;100.00
2192;BME280;1102;49.718;11.902;2022-09-21T03:30:45;97085.94;;;1.97;100.00
2192;BME280;1102;49.718;11.902;2022-09-21T03:33:13;97109.81;;;2.21;100.00
2192;BME280;1102;49.718;11.902;2022-09-21T03:35:40;97122.19;;;1.99;100.00
2192;BME280;1102;49.718;11.902;2022-09-21T03:38:07;97094.44;;;1.77;100.00
2192;BME280;1102;49.718;11.902;2022-09-21T03:40:34;97112.19;;;1.86;100.00
2192;BME280;1102;49.718;11.902;2022-09-21T03:43:00;97128.94;;;1.90;100.00
2192;BME280;1102;49.718;11.902;2022-09-21T03:45:27;97096.16;;;1.67;100.00
2192;BME280;1102;49.718;11.902;2022-09-21T03:47:55;97142.00;;;2.00;100.00
2192;BME280;1102;49.718;11.902;2022-09-21T03:50:23;97135.03;;;2.05;100.00
2192;BME280;1102;49.718;11.902;2022-09-21T03:52:50;97145.19;;;2.02;100.00
2192;BME280;1102;49.718;11.902;2022-09-21T03:55:17;97135.84;;;2.11;100.00
2192;BME280;1102;49.718;11.902;2022-09-21T03:57:43;97110.59;;;1.80;100.00
2192;BME280;1102;49.718;11.902;2022-09-21T04:00:10;97108.69;;;1.70;100.00
2192;BME280;1102;49.718;11.902;2022-09-21T04:02:37;97110.72;;;2.00;100.00
2192;BME280;1102;49.718;11.902;2022-09-21T04:05:10;97155.28;;;2.35;100.00
2192;BME280;1102;49.718;11.902;2022-09-21T04:07:40;97161.66;;;2.13;100.00
2192;BME280;1102;49.718;11.902;2022-09-21T04:10:10;97160.03;;;1.69;100.00
2192;BME280;1102;49.718;11.902;2022-09-21T04:12:39;97126.00;;;1.49;100.00
2192;BME280;1102;49.718;11.902;2022-09-21T04:15:13;97160.28;;;1.68;100.00
2192;BME280;1102;49.718;11.902;2022-09-21T04:17:40;97157.44;;;1.69;100.00
2192;BME280;1102;49.718;11.902;2022-09-21T04:20:08;97156.09;;;1.99;100.00
2192;BME280;1102;49.718;11.902;2022-09-21T04:22:35;97143.56;;;1.96;100.00
2192;BME280;1102;49.718;11.902;2022-09-21T04:25:09;97160.41;;;2.15;100.00
2192;BME280;1102;49.718;11.902;2022-09-21T04:27:36;97091.00;;;1.40;100.00
2192;BME280;1102;49.718;11.902;2022-09-21T04:30:04;97164.91;;;1.88;100.00
2192;BME280;1102;49.718;11.902;2022-09-21T04:32:31;97111.22;;;1.28;100.00
2192;BME280;1102;49.718;11.902;2022-09-21T04:34:57;97115.22;;;1.35;100.00
2192;BME280;1102;49.718;11.902;2022-09-21T04:37:24;97151.03;;;1.82;100.00
2192;BME280;1102;49.718;11.902;2022-09-21T04:39:51;97120.56;;;1.56;100.00
2192;BME280;1102;49.718;11.902;2022-09-21T04:42:17;97129.97;;;1.57;100.00
2192;BME280;1102;49.718;11.902;2022-09-21T04:44:44;97173.16;;;1.80;100.00
2192;BME280;1102;49.718;11.902;2022-09-21T04:47:11;97164.94;;;1.61;100.00
2192;BME280;1102;49.718;11.902;2022-09-21T04:49:38;97135.44;;;1.01;100.00
2192;BME280;1102;49.718;11.902;2022-09-21T04:52:04;97139.34;;;1.26;100.00
2192;BME280;1102;49.718;11.902;2022-09-21T04:54:31;97159.50;;;1.67;100.00
2192;BME280;1102;49.718;11.902;2022-09-21T04:56:58;97140.00;;;1.43;100.00
2192;BME280;1102;49.718;11.902;2022-09-21T04:59:24;97150.03;;;1.56;100.00
2192;BME280;1102;49.718;11.902;2022-09-21T05:01:51;97126.06;;;1.00;100.00
2192;BME280;1102;49.718;11.902;2022-09-21T05:04:18;97112.06;;;1.06;100.00
2192;BME280;1102;49.718;11.902;2022-09-21T05:06:44;97121.94;;;1.04;100.00
2192;BME280;1102;49.718;11.902;2022-09-21T05:09:11;97163.13;;;1.34;100.00
2192;BME280;1102;49.718;11.902;2022-09-21T05:11:56;97205.94;;;1.43;100.00
2192;BME280;1102;49.718;11.902;2022-09-21T05:14:23;97192.25;;;1.31;100.00
2192;BME280;1102;49.718;11.902;2022-09-21T05:16:49;97169.69;;;1.15;100.00
2192;BME280;1102;49.718;11.902;2022-09-21T05:19:16;97186.91;;;1.16;100.00
2192;BME280;1102;49.718;11.902;2022-09-21T05:21:43;97166.59;;;1.18;100.00
2192;BME280;1102;49.718;11.902;2022-09-21T05:24:09;97165.19;;;1.32;100.00
2192;BME280;1102;49.718;11.902;2022-09-21T05:26:36;97199.50;;;1.51;100.00
2192;BME280;1102;49.718;11.902;2022-09-21T05:29:03;97184.13;;;1.50;100.00
2192;BME280;1102;49.718;11.902;2022-09-21T05:35:15;97172.06;;;1.16;100.00
2192;BME280;1102;49.718;11.902;2022-09-21T05:38:05;97203.06;;;1.45;100.00
2192;BME280;1102;49.718;11.902;2022-09-21T05:40:30;97140.91;;;1.00;100.00
2192;BME280;1102;49.718;11.902;2022-09-21T05:42:57;97217.06;;;1.34;100.00
2192;BME280;1102;49.718;11.902;2022-09-21T05:45:24;97213.31;;;1.52;100.00
2192;BME280;1102;49.718;11.902;2022-09-21T05:47:53;97221.78;;;1.64;100.00
2192;BME280;1102;49.718;11.902;2022-09-21T05:50:41;97218.63;;;1.62;100.00
2192;BME280;1102;49.718;11.902;2022-09-21T05:53:52;97217.59;;;1.36;100.00
2192;BME280;1102;49.718;11.902;2022-09-21T05:56:47;97206.53;;;1.51;100.00
2192;BME280;1102;49.718;11.902;2022-09-21T06:02:40;97223.53;;;1.58;100.00
2192;BME280;1102;49.718;11.902;2022-09-21T06:05:12;97199.34;;;1.36;100.00
2192;BME280;1102;49.718;11.902;2022-09-21T06:07:39;97174.97;;;1.47;100.00
2192;BME280;1102;49.718;11.902;2022-09-21T06:10:11;97220.59;;;1.50;100.00
2192;BME280;1102;49.718;11.902;2022-09-21T06:12:39;97199.53;;;1.56;100.00
2192;BME280;1102;49.718;11.902;2022-09-21T06:15:07;97226.78;;;1.43;100.00
2192;BME280;1102;49.718;11.902;2022-09-21T06:17:35;97192.13;;;1.43;100.00
2192;BME280;1102;49.718;11.902;2022-09-21T06:20:02;97228.75;;;1.58;100.00
2192;BME280;1102;49.718;11.902;2022-09-21T06:22:29;97211.34;;;1.64;100.00
2192;BME280;1102;49.718;11.902;2022-09-21T06:24:56;97201.59;;;1.81;100.00
2192;BME280;1102;49.718;11.902;2022-09-21T06:27:22;97170.75;;;1.73;100.00
2192;BME280;1102;49.718;11.902;2022-09-21T06:29:49;97197.63;;;2.11;100.00
2192;BME280;1102;49.718;11.902;2022-09-21T06:32:16;97229.91;;;2.36;100.00
2192;BME280;1102;49.718;11.902;2022-09-21T06:34:42;97193.00;;;1.86;100.00
2192;BME280;1102;49.718;11.902;2022-09-21T06:37:09;97216.09;;;2.36;100.00
2192;BME280;1102;49.718;11.902;2022-09-21T06:39:36;97223.09;;;2.30;100.00
2192;BME280;1102;49.718;11.902;2022-09-21T06:42:02;97244.41;;;2.17;100.00
2192;BME280;1102;49.718;11.902;2022-09-21T06:44:29;97242.22;;;2.41;100.00
2192;BME280;1102;49.718;11.902;2022-09-21T06:46:56;97231.22;;;2.34;100.00
2192;BME280;1102;49.718;11.902;2022-09-21T06:49:22;97228.25;;;2.25;100.00
2192;BME280;1102;49.718;11.902;2022-09-21T06:51:49;97240.41;;;2.42;100.00
2192;BME280;1102;49.718;11.902;2022-09-21T06:54:16;97177.81;;;2.10;100.00
2192;BME280;1102;49.718;11.902;2022-09-21T06:56:43;97221.13;;;2.48;100.00
2192;BME280;1102;49.718;11.902;2022-09-21T06:59:10;97192.16;;;2.49;100.00
2192;BME280;1102;49.718;11.902;2022-09-21T07:01:37;97242.22;;;2.88;100.00
2192;BME280;1102;49.718;11.902;2022-09-21T07:04:04;97243.28;;;2.92;100.00
2192;BME280;1102;49.718;11.902;2022-09-21T07:06:32;97196.66;;;2.59;100.00
2192;BME280;1102;49.718;11.902;2022-09-21T07:08:58;97250.91;;;2.94;100.00
2192;BME280;1102;49.718;11.902;2022-09-21T07:11:46;97187.59;;;2.77;100.00
2192;BME280;1102;49.718;11.902;2022-09-21T07:14:12;97235.53;;;3.08;100.00
2192;BME280;1102;49.718;11.902;2022-09-21T07:16:40;97219.09;;;3.12;100.00
2192;BME280;1102;49.718;11.902;2022-09-21T07:19:07;97247.63;;;3.24;100.00
2192;BME280;1102;49.718;11.902;2022-09-21T07:21:38;97251.09;;;2.87;100.00
2192;BME280;1102;49.718;11.902;2022-09-21T07:24:05;97222.84;;;2.74;100.00
2192;BME280;1102;49.718;11.902;2022-09-21T07:26:37;97213.19;;;2.80;100.00
2192;BME280;1102;49.718;11.902;2022-09-21T07:29:04;97250.44;;;3.07;100.00
2192;BME280;1102;49.718;11.902;2022-09-21T07:31:31;97252.28;;;3.12;100.00
2192;BME280;1102;49.718;11.902;2022-09-21T07:33:57;97212.56;;;3.20;100.00
2192;BME280;1102;49.718;11.902;2022-09-21T07:36:24;97248.66;;;3.23;100.00
2192;BME280;1102;49.718;11.902;2022-09-21T07:38:51;97258.66;;;3.46;100.00
2192;BME280;1102;49.718;11.902;2022-09-21T07:41:19;97251.63;;;3.57;100.00
2192;BME280;1102;49.718;11.902;2022-09-21T07:43:46;97211.06;;;3.39;100.00
2192;BME280;1102;49.718;11.902;2022-09-21T07:46:14;97224.44;;;3.48;100.00
2192;BME280;1102;49.718;11.902;2022-09-21T07:48:41;97250.63;;;3.78;100.00
2192;BME280;1102;49.718;11.902;2022-09-21T07:51:10;97244.84;;;3.56;100.00
2192;BME280;1102;49.718;11.902;2022-09-21T07:53:39;97253.00;;;3.80;100.00
2192;BME280;1102;49.718;11.902;2022-09-21T07:56:08;97245.94;;;3.85;100.00
2192;BME280;1102;49.718;11.902;2022-09-21T07:58:35;97227.09;;;3.99;100.00
2192;BME280;1102;49.718;11.902;2022-09-21T08:01:21;97217.41;;;3.74;100.00
2192;BME280;1102;49.718;11.902;2022-09-21T08:03:52;97242.03;;;4.19;100.00
2192;BME280;1102;49.718;11.902;2022-09-21T08:06:20;97254.59;;;4.22;100.00
2192;BME280;1102;49.718;11.902;2022-09-21T08:08:47;97255.63;;;4.36;100.00
2192;BME280;1102;49.718;11.902;2022-09-21T08:11:21;97267.69;;;4.47;100.00
2192;BME280;1102;49.718;11.902;2022-09-21T08:13:51;97257.75;;;4.19;100.00
2192;BME280;1102;49.718;11.902;2022-09-21T08:16:18;97264.78;;;4.54;100.00
2192;BME280;1102;49.718;11.902;2022-09-21T08:18:45;97242.81;;;4.55;100.00
2192;BME280;1102;49.718;11.902;2022-09-21T08:21:12;97273.66;;;4.73;100.00
2192;BME280;1102;49.718;11.902;2022-09-21T08:23:39;97233.59;;;4.62;100.00
2192;BME280;1102;49.718;11.902;2022-09-21T08:26:11;97223.94;;;4.48;100.00
2192;BME280;1102;49.718;11.902;2022-09-21T08:28:43;97263.13;;;4.93;100.00
2192;BME280;1102;49.718;11.902;2022-09-21T08:31:10;97253.69;;;4.92;100.00
2192;BME280;1102;49.718;11.902;2022-09-21T08:33:36;97244.53;;;4.90;100.00
2192;BME280;1102;49.718;11.902;2022-09-21T08:36:03;97236.16;;;4.88;100.00
2192;BME280;1102;49.718;11.902;2022-09-21T08:38:33;97272.25;;;5.21;100.00
2192;BME280;1102;49.718;11.902;2022-09-21T08:41:01;97257.94;;;5.53;100.00
2192;BME280;1102;49.718;11.902;2022-09-21T08:43:39;97275.56;;;5.86;100.00
2192;BME280;1102;49.718;11.902;2022-09-21T08:46:11;97265.38;;;5.90;100.00
2192;BME280;1102;49.718;11.902;2022-09-21T08:48:42;97251.25;;;5.76;100.00
2192;BME280;1102;49.718;11.902;2022-09-21T08:51:20;97281.00;;;6.05;100.00
2192;BME280;1102;49.718;11.902;2022-09-21T08:53:51;97263.81;;;6.23;100.00
2192;BME280;1102;49.718;11.902;2022-09-21T08:56:21;97217.59;;;5.88;100.00
2192;BME280;1102;49.718;11.902;2022-09-21T08:58:48;97280.16;;;6.15;100.00
2192;BME280;1102;49.718;11.902;2022-09-21T09:04:08;97289.50;;;6.26;100.00
2192;BME280;1102;49.718;11.902;2022-09-21T09:06:49;97284.78;;;5.89;100.00
2192;BME280;1102;49.718;11.902;2022-09-21T09:20:30;97265.97;;;7.03;100.00
2192;BME280;1102;49.718;11.902;2022-09-21T09:23:16;97290.03;;;7.15;100.00
2192;BME280;1102;49.718;11.902;2022-09-21T09:25:49;97259.53;;;6.90;100.00
2192;BME280;1102;49.718;11.902;2022-09-21T09:31:36;97246.28;;;7.00;100.00
2192;BME280;1102;49.718;11.902;2022-09-21T09:34:29;97274.13;;;7.01;100.00
2192;BME280;1102;49.718;11.902;2022-09-21T09:37:00;97251.84;;;6.70;100.00
2192;BME280;1102;49.718;11.902;2022-09-21T09:39:30;97237.72;;;6.90;100.00
2192;BME280;1102;49.718;11.902;2022-09-21T09:47:49;97266.47;;;7.90;100.00
2192;BME280;1102;49.718;11.902;2022-09-21T09:50:31;97265.50;;;8.19;100.00
2192;BME280;1102;49.718;11.902;2022-09-21T09:53:22;97273.03;;;8.44;100.00
2192;BME280;1102;49.718;11.902;2022-09-21T09:55:52;97261.47;;;8.59;100.00
2192;BME280;1102;49.718;11.902;2022-09-21T09:58:40;97265.28;;;8.67;100.00
2192;BME280;1102;49.718;11.902;2022-09-21T10:01:07;97217.22;;;8.42;100.00
2192;BME280;1102;49.718;11.902;2022-09-21T10:03:34;97257.19;;;8.91;100.00
2192;BME280;1102;49.718;11.902;2022-09-21T10:06:01;97219.91;;;8.83;100.00
2192;BME280;1102;49.718;11.902;2022-09-21T10:11:11;97255.25;;;9.37;100.00
2192;BME280;1102;49.718;11.902;2022-09-21T10:13:44;97238.53;;;9.42;100.00
2192;BME280;1102;49.718;11.902;2022-09-21T10:18:46;97251.25;;;9.90;100.00
2192;BME280;1102;49.718;11.902;2022-09-21T10:23:52;97255.16;;;10.28;100.00
2192;BME280;1102;49.718;11.902;2022-09-21T10:26:22;97237.63;;;10.41;100.00
2192;BME280;1102;49.718;11.902;2022-09-21T10:28:57;97221.78;;;10.19;100.00
2192;BME280;1102;49.718;11.902;2022-09-21T10:31:33;97234.09;;;10.23;100.00
2192;BME280;1102;49.718;11.902;2022-09-21T10:36:31;97249.06;;;10.28;100.00
2192;BME280;1102;49.718;11.902;2022-09-21T10:42:13;97222.50;;;9.74;100.00
2192;BME280;1102;49.718;11.902;2022-09-21T10:44:43;97243.28;;;10.26;100.00
2192;BME280;1102;49.718;11.902;2022-09-21T10:49:52;97241.97;;;10.68;100.00
2192;BME280;1102;49.718;11.902;2022-09-21T10:52:23;97243.81;;;10.90;100.00
2192;BME280;1102;49.718;11.902;2022-09-21T10:54:53;97229.84;;;10.98;100.00
2192;BME280;1102;49.718;11.902;2022-09-21T10:57:22;97217.34;;;10.90;100.00
2192;BME280;1102;49.718;11.902;2022-09-21T10:59:49;97227.69;;;10.69;100.00
2192;BME280;1102;49.718;11.902;2022-09-21T11:02:34;97226.47;;;10.75;100.00
2192;BME280;1102;49.718;11.902;2022-09-21T11:05:14;97252.31;;;11.18;100.00
2192;BME280;1102;49.718;11.902;2022-09-21T11:07:55;97222.47;;;10.86;100.00
2192;BME280;1102;49.718;11.902;2022-09-21T11:10:52;97205.25;;;10.66;100.00
2192;BME280;1102;49.718;11.902;2022-09-21T11:13:30;97246.16;;;11.40;100.00
2192;BME280;1102;49.718;11.902;2022-09-21T11:16:10;97222.22;;;11.05;100.00
2192;BME280;1102;49.718;11.902;2022-09-21T11:21:52;97252.47;;;11.13;100.00
2192;BME280;1102;49.718;11.902;2022-09-21T11:33:42;97169.09;;;10.84;100.00
2192;BME280;1102;49.718;11.902;2022-09-21T11:46:47;97242.72;;;12.60;99.97
2192;BME280;1102;49.718;11.902;2022-09-21T11:54:55;97232.69;;;13.51;93.80
2192;BME280;1102;49.718;11.902;2022-09-21T12:00:22;97217.00;;;14.33;92.35
2192;BME280;1102;49.718;11.902;2022-09-21T12:03:22;97230.75;;;14.56;87.87
2192;BME280;1102;49.718;11.902;2022-09-21T12:06:05;97206.72;;;15.25;88.74
2192;BME280;1102;49.718;11.902;2022-09-21T12:11:45;97212.53;;;14.45;87.32
2192;BME280;1102;49.718;11.902;2022-09-21T12:20:26;97203.81;;;14.69;88.45
2192;BME280;1102;49.718;11.902;2022-09-21T12:22:44;97201.34;;;15.62;86.47
2192;BME280;1102;49.718;11.902;2022-09-21T12:25:18;97229.59;;;16.03;80.19
2192;BME280;1102;49.718;11.902;2022-09-21T12:27:55;97200.06;;;15.84;79.90
2192;BME280;1102;49.718;11.902;2022-09-21T12:30:26;97190.41;;;14.33;83.80
2192;BME280;1102;49.718;11.902;2022-09-21T12:32:58;97186.53;;;13.55;90.87
2192;BME280;1102;49.718;11.902;2022-09-21T12:38:22;97203.22;;;13.06;100.00
2192;BME280;1102;49.718;11.902;2022-09-21T12:40:57;97203.47;;;12.28;100.00
2192;BME280;1102;49.718;11.902;2022-09-21T12:43:44;97199.94;;;12.06;100.00
2192;BME280;1102;49.718;11.902;2022-09-21T12:46:20;97164.38;;;11.99;100.00
2192;BME280;1102;49.718;11.902;2022-09-21T12:48:49;97186.50;;;12.11;100.00
2192;BME280;1102;49.718;11.902;2022-09-21T12:54:00;97187.75;;;12.14;100.00
2192;BME280;1102;49.718;11.902;2022-09-21T12:56:44;97188.22;;;12.07;100.00
2192;BME280;1102;49.718;11.902;2022-09-21T13:02:23;97198.69;;;12.68;100.00
2192;BME280;1102;49.718;11.902;2022-09-21T13:10:18;97199.25;;;12.35;100.00
2192;BME280;1102;49.718;11.902;2022-09-21T13:12:52;97154.13;;;11.89;100.00
2192;BME280;1102;49.718;11.902;2022-09-21T13:15:23;97193.69;;;12.20;100.00
2192;BME280;1102;49.718;11.902;2022-09-21T13:18:01;97192.13;;;12.10;100.00
2192;BME280;1102;49.718;11.902;2022-09-21T13:20:37;97168.59;;;12.00;100.00
2192;BME280;1102;49.718;11.902;2022-09-21T13:23:10;97172.50;;;11.94;100.00
2192;BME280;1102;49.718;11.902;2022-09-21T13:25:39;97155.50;;;11.86;100.00
2192;BME280;1102;49.718;11.902;2022-09-21T13:36:41;97187.31;;;11.95;97.37
2192;BME280;1102;49.718;11.902;2022-09-21T13:41:35;97184.13;;;12.36;99.04
2192;BME280;1102;49.718;11.902;2022-09-21T13:44:43;97179.28;;;12.38;95.44
2192;BME280;1102;49.718;11.902;2022-09-21T13:47:11;97180.22;;;12.33;99.34
2192;BME280;1102;49.718;11.902;2022-09-21T13:49:44;97171.22;;;12.17;100.00
2192;BME280;1102;49.718;11.902;2022-09-21T13:55:00;97149.13;;;12.51;94.67
2192;BME280;1102;49.718;11.902;2022-09-21T14:05:23;97179.16;;;13.11;79.53
2192;BME280;1102;49.718;11.902;2022-09-21T14:10:51;97192.97;;;15.23;70.75
2192;BME280;1102;49.718;11.902;2022-09-21T14:13:35;97182.91;;;15.97;72.27
2192;BME280;1102;49.718;11.902;2022-09-21T14:16:25;97184.75;;;14.92;72.86
2192;BME280;1102;49.718;11.902;2022-09-21T14:29:50;97176.69;;;16.21;70.27
2192;BME280;1102;49.718;11.902;2022-09-21T14:32:21;97161.47;;;15.65;71.89
2192;BME280;1102;49.718;11.902;2022-09-21T14:34:52;97151.63;;;15.42;71.21
2192;BME280;1102;49.718;11.902;2022-09-21T14:39:56;97175.59;;;15.42;73.00
2192;BME280;1102;49.718;11.902;2022-09-21T14:42:27;97160.09;;;15.07;71.72
2192;BME280;1102;49.718;11.902;2022-09-21T14:44:56;97146.75;;;15.31;70.38
2192;BME280;1102;49.718;11.902;2022-09-21T14:51:01;97140.91;;;15.14;71.86
2192;BME280;1102;49.718;11.902;2022-09-21T14:53:56;97156.75;;;16.62;68.92
2192;BME280;1102;49.718;11.902;2022-09-21T14:56:37;97111.53;;;16.38;68.18
2192;BME280;1102;49.718;11.902;2022-09-21T15:02:23;97147.56;;;16.16;66.63
2192;BME280;1102;49.718;11.902;2022-09-21T15:11:05;97158.25;;;16.16;66.49
2192;BME280;1102;49.718;11.902;2022-09-21T15:17:02;97123.97;;;15.34;67.46
2192;BME280;1102;49.718;11.902;2022-09-21T15:19:28;97137.91;;;15.95;67.76
2192;BME280;1102;49.718;11.902;2022-09-21T15:22:10;97139.56;;;16.16;68.08
2192;BME280;1102;49.718;11.902;2022-09-21T15:24:55;97114.94;;;15.63;67.05
2192;BME280;1102;49.718;11.902;2022-09-21T15:27:25;97121.03;;;15.11;66.36
2192;BME280;1102;49.718;11.902;2022-09-21T15:29:54;97109.97;;;14.72;67.99
2192;BME280;1102;49.718;11.902;2022-09-21T15:32:41;97135.22;;;15.27;68.67
2192;BME280;1102;49.718;11.902;2022-09-21T15:35:18;97130.72;;;14.67;70.73
2192;BME280;1102;49.718;11.902;2022-09-21T15:37:46;97122.75;;;14.22;73.76
2192;BME280;1102;49.718;11.902;2022-09-21T15:40:22;97078.59;;;13.51;75.56
2192;BME280;1102;49.718;11.902;2022-09-21T15:48:37;97107.88;;;12.92;79.60
2192;BME280;1102;49.718;11.902;2022-09-21T15:51:15;97115.41;;;12.81;82.86
2192;BME280;1102;49.718;11.902;2022-09-21T15:53:53;97088.44;;;12.79;83.36
2192;BME280;1102;49.718;11.902;2022-09-21T15:56:24;97103.63;;;12.70;89.65
2192;BME280;1102;49.718;11.902;2022-09-21T15:58:58;97111.63;;;12.61;94.84
2192;BME280;1102;49.718;11.902;2022-09-21T16:01:41;97079.72;;;12.02;100.00
2192;BME280;1102;49.718;11.902;2022-09-21T16:04:16;97101.19;;;12.18;100.00
2192;BME280;1102;49.718;11.902;2022-09-21T16:06:46;97091.13;;;12.03;100.00
2192;BME280;1102;49.718;11.902;2022-09-21T16:09:44;97078.06;;;11.89;100.00
2192;BME280;1102;49.718;11.902;2022-09-21T16:12:36;97104.84;;;11.88;100.00
2192;BME280;1102;49.718;11.902;2022-09-21T16:15:06;97073.69;;;11.76;100.00
2192;BME280;1102;49.718;11.902;2022-09-21T16:17:36;97108.44;;;11.83;100.00
2192;BME280;1102;49.718;11.902;2022-09-21T16:20:13;97103.78;;;11.80;100.00
2192;BME280;1102;49.718;11.902;2022-09-21T16:22:42;97087.56;;;11.64;100.00
2192;BME280;1102;49.718;11.902;2022-09-21T16:30:47;97109.72;;;11.51;100.00
2192;BME280;1102;49.718;11.902;2022-09-21T16:35:59;97101.91;;;11.29;100.00
2192;BME280;1102;49.718;11.902;2022-09-21T16:38:32;97106.41;;;11.19;100.00
2192;BME280;1102;49.718;11.902;2022-09-21T16:41:00;97072.78;;;11.03;100.00
2192;BME280;1102;49.718;11.902;2022-09-21T16:43:27;97075.56;;;11.06;100.00
2192;BME280;1102;49.718;11.902;2022-09-21T16:45:55;97110.94;;;11.10;100.00
2192;BME280;1102;49.718;11.902;2022-09-21T16:48:21;97059.47;;;10.59;100.00
2192;BME280;1102;49.718;11.902;2022-09-21T16:50:48;97053.84;;;10.52;100.00